sensor_id;sensor_type;location;lat;lon;timestamp;P1;durP1;ratioP1;P2;durP2;ratioP2
42338;SDS011;27993;45.392;10.918;2023-03-01T00:02:15;25.30;;;12.10;;
42338;SDS011;27993;45.392;10.918;2023-03-01T00:04:46;18.48;;;10.70;;
42338;SDS011;27993;45.392;10.918;2023-03-01T00:07:17;26.55;;;11.38;;
42338;SDS011;27993;45.392;10.918;2023-03-01T00:09:47;18.60;;;9.65;;
42338;SDS011;27993;45.392;10.918;2023-03-01T00:12:18;22.00;;;10.45;;
42338;SDS011;27993;45.392;10.918;2023-03-01T00:14:48;27.20;;;11.38;;
42338;SDS011;27993;45.392;10.918;2023-03-01T00:17:19;20.65;;;12.18;;
42338;SDS011;27993;45.392;10.918;2023-03-01T00:19:49;21.58;;;10.45;;
42338;SDS011;27993;45.392;10.918;2023-03-01T00:22:20;26.08;;;12.20;;
42338;SDS011;27993;45.392;10.918;2023-03-01T00:24:50;19.77;;;9.98;;
42338;SDS011;27993;45.392;10.918;2023-03-01T00:27:21;23.80;;;11.68;;
42338;SDS011;27993;45.392;10.918;2023-03-01T00:29:52;20.25;;;10.05;;
42338;SDS011;27993;45.392;10.918;2023-03-01T00:32:22;27.17;;;11.27;;
42338;SDS011;27993;45.392;10.918;2023-03-01T00:34:53;21.60;;;10.63;;
42338;SDS011;27993;45.392;10.918;2023-03-01T00:37:26;21.05;;;10.45;;
42338;SDS011;27993;45.392;10.918;2023-03-01T00:39:56;17.62;;;9.25;;
42338;SDS011;27993;45.392;10.918;2023-03-01T00:42:27;19.35;;;10.20;;
42338;SDS011;27993;45.392;10.918;2023-03-01T00:44:57;21.85;;;11.18;;
42338;SDS011;27993;45.392;10.918;2023-03-01T00:47:28;25.65;;;10.43;;
42338;SDS011;27993;45.392;10.918;2023-03-01T00:49:59;19.90;;;10.30;;
42338;SDS011;27993;45.392;10.918;2023-03-01T00:52:30;19.40;;;9.73;;
42338;SDS011;27993;45.392;10.918;2023-03-01T00:55:00;18.70;;;9.57;;
42338;SDS011;27993;45.392;10.918;2023-03-01T00:57:31;24.30;;;11.38;;
42338;SDS011;27993;45.392;10.918;2023-03-01T01:00:02;22.83;;;10.70;;
42338;SDS011;27993;45.392;10.918;2023-03-01T01:02:34;21.67;;;11.10;;
42338;SDS011;27993;45.392;10.918;2023-03-01T01:05:05;28.15;;;10.70;;
42338;SDS011;27993;45.392;10.918;2023-03-01T01:07:36;22.33;;;10.77;;
42338;SDS011;27993;45.392;10.918;2023-03-01T01:10:07;20.33;;;11.00;;
42338;SDS011;27993;45.392;10.918;2023-03-01T01:12:45;24.05;;;11.12;;
42338;SDS011;27993;45.392;10.918;2023-03-01T01:15:16;20.60;;;10.98;;
42338;SDS011;27993;45.392;10.918;2023-03-01T01:17:47;23.95;;;12.07;;
42338;SDS011;27993;45.392;10.918;2023-03-01T01:20:17;23.45;;;9.50;;
42338;SDS011;27993;45.392;10.918;2023-03-01T01:22:48;22.75;;;11.15;;
42338;SDS011;27993;45.392;10.918;2023-03-01T01:25:18;16.48;;;9.10;;
42338;SDS011;27993;45.392;10.918;2023-03-01T01:27:49;22.00;;;10.43;;
42338;SDS011;27993;45.392;10.918;2023-03-01T01:30:20;18.30;;;9.95;;
42338;SDS011;27993;45.392;10.918;2023-03-01T01:32:50;18.55;;;10.38;;
42338;SDS011;27993;45.392;10.918;2023-03-01T01:35:21;20.15;;;9.88;;
42338;SDS011;27993;45.392;10.918;2023-03-01T01:37:51;23.23;;;10.60;;
42338;SDS011;27993;45.392;10.918;2023-03-01T01:40:22;19.60;;;11.00;;
42338;SDS011;27993;45.392;10.918;2023-03-01T01:42:52;22.40;;;10.63;;
42338;SDS011;27993;45.392;10.918;2023-03-01T01:45:28;25.90;;;10.65;;
42338;SDS011;27993;45.392;10.918;2023-03-01T01:48:04;26.52;;;10.15;;
42338;SDS011;27993;45.392;10.918;2023-03-01T01:50:40;18.73;;;10.27;;
42338;SDS011;27993;45.392;10.918;2023-03-01T01:53:16;25.50;;;11.95;;
42338;SDS011;27993;45.392;10.918;2023-03-01T01:55:51;16.62;;;9.45;;
42338;SDS011;27993;45.392;10.918;2023-03-01T01:58:27;23.83;;;9.57;;
42338;SDS011;27993;45.392;10.918;2023-03-01T02:01:00;25.73;;;12.13;;
42338;SDS011;27993;45.392;10.918;2023-03-01T02:03:32;17.33;;;9.73;;
42338;SDS011;27993;45.392;10.918;2023-03-01T02:08:51;23.73;;;11.32;;
42338;SDS011;27993;45.392;10.918;2023-03-01T02:11:23;26.75;;;11.68;;
42338;SDS011;27993;45.392;10.918;2023-03-01T02:13:53;24.77;;;11.75;;
42338;SDS011;27993;45.392;10.918;2023-03-01T02:16:24;25.92;;;11.60;;
42338;SDS011;27993;45.392;10.918;2023-03-01T02:18:56;22.67;;;11.45;;
42338;SDS011;27993;45.392;10.918;2023-03-01T02:26:58;26.90;;;11.20;;
42338;SDS011;27993;45.392;10.918;2023-03-01T02:29:29;33.10;;;12.63;;
42338;SDS011;27993;45.392;10.918;2023-03-01T02:32:00;20.67;;;10.77;;
42338;SDS011;27993;45.392;10.918;2023-03-01T02:34:33;37.25;;;11.27;;
42338;SDS011;27993;45.392;10.918;2023-03-01T02:37:06;20.75;;;11.23;;
42338;SDS011;27993;45.392;10.918;2023-03-01T02:39:44;19.92;;;10.23;;
42338;SDS011;27993;45.392;10.918;2023-03-01T02:42:23;34.08;;;11.12;;
42338;SDS011;27993;45.392;10.918;2023-03-01T02:45:00;22.90;;;10.57;;
42338;SDS011;27993;45.392;10.918;2023-03-01T02:47:30;26.05;;;10.95;;
42338;SDS011;27993;45.392;10.918;2023-03-01T02:50:01;27.60;;;10.43;;
42338;SDS011;27993;45.392;10.918;2023-03-01T02:55:26;25.75;;;10.05;;
42338;SDS011;27993;45.392;10.918;2023-03-01T02:57:57;20.77;;;9.65;;
42338;SDS011;27993;45.392;10.918;2023-03-01T03:00:38;19.67;;;10.63;;
42338;SDS011;27993;45.392;10.918;2023-03-01T03:03:15;26.98;;;11.55;;
42338;SDS011;27993;45.392;10.918;2023-03-01T03:05:49;24.37;;;12.18;;
42338;SDS011;27993;45.392;10.918;2023-03-01T03:08:19;18.77;;;10.00;;
42338;SDS011;27993;45.392;10.918;2023-03-01T03:10:53;23.98;;;11.30;;
42338;SDS011;27993;45.392;10.918;2023-03-01T03:13:24;17.73;;;10.45;;
42338;SDS011;27993;45.392;10.918;2023-03-01T03:15:58;24.12;;;11.43;;
42338;SDS011;27993;45.392;10.918;2023-03-01T03:18:28;24.15;;;11.38;;
42338;SDS011;27993;45.392;10.918;2023-03-01T03:20:59;27.05;;;11.43;;
42338;SDS011;27993;45.392;10.918;2023-03-01T03:23:30;19.52;;;11.15;;
42338;SDS011;27993;45.392;10.918;2023-03-01T03:26:01;23.60;;;9.93;;
42338;SDS011;27993;45.392;10.918;2023-03-01T03:28:34;28.02;;;11.38;;
42338;SDS011;27993;45.392;10.918;2023-03-01T03:31:06;20.12;;;10.73;;
42338;SDS011;27993;45.392;10.918;2023-03-01T03:33:37;19.48;;;10.45;;
42338;SDS011;27993;45.392;10.918;2023-03-01T03:36:08;23.25;;;10.48;;
42338;SDS011;27993;45.392;10.918;2023-03-01T03:38:43;20.85;;;11.02;;
42338;SDS011;27993;45.392;10.918;2023-03-01T03:41:15;23.65;;;10.27;;
42338;SDS011;27993;45.392;10.918;2023-03-01T03:43:46;20.48;;;10.57;;
42338;SDS011;27993;45.392;10.918;2023-03-01T03:46:18;30.37;;;10.38;;
42338;SDS011;27993;45.392;10.918;2023-03-01T03:48:49;22.50;;;11.43;;
42338;SDS011;27993;45.392;10.918;2023-03-01T03:51:19;20.73;;;9.80;;
42338;SDS011;27993;45.392;10.918;2023-03-01T03:53:52;24.98;;;11.20;;
42338;SDS011;27993;45.392;10.918;2023-03-01T03:56:23;18.65;;;10.57;;
42338;SDS011;27993;45.392;10.918;2023-03-01T03:58:55;26.98;;;11.20;;
42338;SDS011;27993;45.392;10.918;2023-03-01T04:01:26;22.50;;;10.15;;
42338;SDS011;27993;45.392;10.918;2023-03-01T04:03:56;24.77;;;10.48;;
42338;SDS011;27993;45.392;10.918;2023-03-01T04:06:33;28.33;;;10.20;;
42338;SDS011;27993;45.392;10.918;2023-03-01T04:09:04;25.92;;;11.12;;
42338;SDS011;27993;45.392;10.918;2023-03-01T04:11:34;24.33;;;10.70;;
42338;SDS011;27993;45.392;10.918;2023-03-01T04:14:05;18.25;;;9.13;;
42338;SDS011;27993;45.392;10.918;2023-03-01T04:16:35;17.65;;;10.75;;
42338;SDS011;27993;45.392;10.918;2023-03-01T04:19:06;15.48;;;9.90;;
42338;SDS011;27993;45.392;10.918;2023-03-01T04:21:37;25.65;;;11.25;;
42338;SDS011;27993;45.392;10.918;2023-03-01T04:24:07;36.00;;;12.40;;
42338;SDS011;27993;45.392;10.918;2023-03-01T04:26:39;24.33;;;12.23;;
42338;SDS011;27993;45.392;10.918;2023-03-01T04:29:10;19.87;;;10.57;;
42338;SDS011;27993;45.392;10.918;2023-03-01T04:31:41;21.80;;;11.07;;
42338;SDS011;27993;45.392;10.918;2023-03-01T04:34:11;24.75;;;11.98;;
42338;SDS011;27993;45.392;10.918;2023-03-01T04:36:44;21.60;;;11.40;;
42338;SDS011;27993;45.392;10.918;2023-03-01T04:39:14;23.20;;;12.05;;
42338;SDS011;27993;45.392;10.918;2023-03-01T04:41:45;30.88;;;12.95;;
42338;SDS011;27993;45.392;10.918;2023-03-01T04:44:15;25.85;;;12.65;;
42338;SDS011;27993;45.392;10.918;2023-03-01T04:46:48;18.83;;;10.75;;
42338;SDS011;27993;45.392;10.918;2023-03-01T04:49:19;22.37;;;11.30;;
42338;SDS011;27993;45.392;10.918;2023-03-01T04:51:50;21.95;;;11.93;;
42338;SDS011;27993;45.392;10.918;2023-03-01T04:54:20;21.27;;;10.20;;
42338;SDS011;27993;45.392;10.918;2023-03-01T04:56:51;27.55;;;12.43;;
42338;SDS011;27993;45.392;10.918;2023-03-01T04:59:21;22.98;;;14.25;;
42338;SDS011;27993;45.392;10.918;2023-03-01T05:01:52;29.75;;;13.45;;
42338;SDS011;27993;45.392;10.918;2023-03-01T05:04:25;22.87;;;13.07;;
42338;SDS011;27993;45.392;10.918;2023-03-01T05:06:56;30.55;;;12.35;;
42338;SDS011;27993;45.392;10.918;2023-03-01T05:09:28;27.58;;;13.75;;
42338;SDS011;27993;45.392;10.918;2023-03-01T05:11:59;22.95;;;12.88;;
42338;SDS011;27993;45.392;10.918;2023-03-01T05:14:29;21.17;;;11.15;;
42338;SDS011;27993;45.392;10.918;2023-03-01T05:17:00;24.12;;;10.30;;
42338;SDS011;27993;45.392;10.918;2023-03-01T05:19:34;25.70;;;11.88;;
42338;SDS011;27993;45.392;10.918;2023-03-01T05:22:04;21.33;;;12.05;;
42338;SDS011;27993;45.392;10.918;2023-03-01T05:24:35;25.12;;;13.10;;
42338;SDS011;27993;45.392;10.918;2023-03-01T05:27:06;30.42;;;11.68;;
42338;SDS011;27993;45.392;10.918;2023-03-01T05:29:36;18.25;;;11.10;;
42338;SDS011;27993;45.392;10.918;2023-03-01T05:32:09;19.40;;;10.90;;
42338;SDS011;27993;45.392;10.918;2023-03-01T05:34:44;24.67;;;12.13;;
42338;SDS011;27993;45.392;10.918;2023-03-01T05:37:16;21.20;;;11.88;;
42338;SDS011;27993;45.392;10.918;2023-03-01T05:39:46;24.42;;;11.82;;
42338;SDS011;27993;45.392;10.918;2023-03-01T05:42:20;26.42;;;12.02;;
42338;SDS011;27993;45.392;10.918;2023-03-01T05:44:50;34.35;;;12.02;;
42338;SDS011;27993;45.392;10.918;2023-03-01T05:47:21;33.17;;;13.05;;
42338;SDS011;27993;45.392;10.918;2023-03-01T05:49:52;24.65;;;11.98;;
42338;SDS011;27993;45.392;10.918;2023-03-01T05:52:22;27.23;;;12.68;;
42338;SDS011;27993;45.392;10.918;2023-03-01T05:54:53;24.05;;;11.02;;
42338;SDS011;27993;45.392;10.918;2023-03-01T05:57:23;24.17;;;13.02;;
42338;SDS011;27993;45.392;10.918;2023-03-01T05:59:54;25.55;;;13.20;;
42338;SDS011;27993;45.392;10.918;2023-03-01T06:02:25;24.48;;;12.57;;
42338;SDS011;27993;45.392;10.918;2023-03-01T06:04:55;32.03;;;13.55;;
42338;SDS011;27993;45.392;10.918;2023-03-01T06:07:26;27.92;;;14.00;;
42338;SDS011;27993;45.392;10.918;2023-03-01T06:09:56;23.52;;;13.10;;
42338;SDS011;27993;45.392;10.918;2023-03-01T06:12:29;26.67;;;14.43;;
42338;SDS011;27993;45.392;10.918;2023-03-01T06:15:04;25.85;;;13.38;;
42338;SDS011;27993;45.392;10.918;2023-03-01T06:17:37;24.85;;;11.65;;
42338;SDS011;27993;45.392;10.918;2023-03-01T06:20:11;23.70;;;11.70;;
42338;SDS011;27993;45.392;10.918;2023-03-01T06:22:49;24.60;;;12.20;;
42338;SDS011;27993;45.392;10.918;2023-03-01T06:25:21;20.88;;;11.15;;
42338;SDS011;27993;45.392;10.918;2023-03-01T06:27:53;23.40;;;11.70;;
42338;SDS011;27993;45.392;10.918;2023-03-01T06:30:24;26.12;;;11.57;;
42338;SDS011;27993;45.392;10.918;2023-03-01T06:32:56;22.37;;;12.52;;
42338;SDS011;27993;45.392;10.918;2023-03-01T06:35:30;24.67;;;13.13;;
42338;SDS011;27993;45.392;10.918;2023-03-01T06:38:02;37.55;;;14.30;;
42338;SDS011;27993;45.392;10.918;2023-03-01T06:43:05;24.93;;;12.07;;
42338;SDS011;27993;45.392;10.918;2023-03-01T06:45:37;27.02;;;12.90;;
42338;SDS011;27993;45.392;10.918;2023-03-01T06:48:07;49.22;;;14.77;;
42338;SDS011;27993;45.392;10.918;2023-03-01T06:50:38;30.85;;;13.60;;
42338;SDS011;27993;45.392;10.918;2023-03-01T06:53:09;27.20;;;15.23;;
42338;SDS011;27993;45.392;10.918;2023-03-01T06:55:39;26.23;;;12.75;;
42338;SDS011;27993;45.392;10.918;2023-03-01T06:58:10;28.95;;;15.52;;
42338;SDS011;27993;45.392;10.918;2023-03-01T07:00:41;27.75;;;14.38;;
42338;SDS011;27993;45.392;10.918;2023-03-01T07:03:12;39.70;;;15.57;;
42338;SDS011;27993;45.392;10.918;2023-03-01T07:05:43;35.08;;;16.80;;
42338;SDS011;27993;45.392;10.918;2023-03-01T07:08:14;27.13;;;14.33;;
42338;SDS011;27993;45.392;10.918;2023-03-01T07:10:45;28.62;;;16.55;;
42338;SDS011;27993;45.392;10.918;2023-03-01T07:13:15;33.35;;;16.60;;
42338;SDS011;27993;45.392;10.918;2023-03-01T07:15:46;34.15;;;17.30;;
42338;SDS011;27993;45.392;10.918;2023-03-01T07:18:17;26.90;;;14.48;;
42338;SDS011;27993;45.392;10.918;2023-03-01T07:20:47;29.00;;;16.55;;
42338;SDS011;27993;45.392;10.918;2023-03-01T07:23:18;31.87;;;15.05;;
42338;SDS011;27993;45.392;10.918;2023-03-01T07:25:54;29.97;;;16.63;;
42338;SDS011;27993;45.392;10.918;2023-03-01T07:28:25;27.80;;;16.48;;
42338;SDS011;27993;45.392;10.918;2023-03-01T07:33:31;26.85;;;14.87;;
42338;SDS011;27993;45.392;10.918;2023-03-01T07:36:03;31.55;;;15.88;;
42338;SDS011;27993;45.392;10.918;2023-03-01T07:38:34;29.52;;;15.32;;
42338;SDS011;27993;45.392;10.918;2023-03-01T07:41:05;29.87;;;17.17;;
42338;SDS011;27993;45.392;10.918;2023-03-01T07:43:36;34.87;;;18.87;;
42338;SDS011;27993;45.392;10.918;2023-03-01T07:46:06;38.53;;;16.77;;
42338;SDS011;27993;45.392;10.918;2023-03-01T07:48:37;32.97;;;19.00;;
42338;SDS011;27993;45.392;10.918;2023-03-01T07:51:07;25.23;;;16.40;;
42338;SDS011;27993;45.392;10.918;2023-03-01T07:53:39;30.48;;;17.73;;
42338;SDS011;27993;45.392;10.918;2023-03-01T07:56:11;34.57;;;18.73;;
42338;SDS011;27993;45.392;10.918;2023-03-01T07:58:43;29.40;;;19.10;;
42338;SDS011;27993;45.392;10.918;2023-03-01T08:01:15;32.90;;;17.58;;
42338;SDS011;27993;45.392;10.918;2023-03-01T08:03:48;30.52;;;17.85;;
42338;SDS011;27993;45.392;10.918;2023-03-01T08:06:18;35.80;;;17.73;;
42338;SDS011;27993;45.392;10.918;2023-03-01T08:08:49;33.40;;;18.20;;
42338;SDS011;27993;45.392;10.918;2023-03-01T08:11:20;34.70;;;18.43;;
42338;SDS011;27993;45.392;10.918;2023-03-01T08:13:50;34.53;;;18.43;;
42338;SDS011;27993;45.392;10.918;2023-03-01T08:16:21;36.53;;;17.97;;
42338;SDS011;27993;45.392;10.918;2023-03-01T08:18:51;35.30;;;19.57;;
42338;SDS011;27993;45.392;10.918;2023-03-01T08:21:22;31.70;;;18.57;;
42338;SDS011;27993;45.392;10.918;2023-03-01T08:23:53;40.77;;;22.47;;
42338;SDS011;27993;45.392;10.918;2023-03-01T08:26:23;31.10;;;20.00;;
42338;SDS011;27993;45.392;10.918;2023-03-01T08:28:54;42.80;;;20.83;;
42338;SDS011;27993;45.392;10.918;2023-03-01T08:31:30;40.57;;;22.00;;
42338;SDS011;27993;45.392;10.918;2023-03-01T08:34:07;35.83;;;21.48;;
42338;SDS011;27993;45.392;10.918;2023-03-01T08:36:40;36.55;;;20.88;;
42338;SDS011;27993;45.392;10.918;2023-03-01T08:39:13;32.03;;;18.92;;
42338;SDS011;27993;45.392;10.918;2023-03-01T08:41:45;30.25;;;19.27;;
42338;SDS011;27993;45.392;10.918;2023-03-01T08:44:16;37.33;;;20.00;;
42338;SDS011;27993;45.392;10.918;2023-03-01T08:46:47;41.07;;;19.67;;
42338;SDS011;27993;45.392;10.918;2023-03-01T08:49:20;36.28;;;20.00;;
42338;SDS011;27993;45.392;10.918;2023-03-01T08:51:50;30.05;;;17.85;;
42338;SDS011;27993;45.392;10.918;2023-03-01T08:54:21;36.27;;;19.60;;
42338;SDS011;27993;45.392;10.918;2023-03-01T08:56:52;33.50;;;20.57;;
42338;SDS011;27993;45.392;10.918;2023-03-01T08:59:22;39.13;;;18.33;;
42338;SDS011;27993;45.392;10.918;2023-03-01T09:01:55;36.05;;;18.30;;
42338;SDS011;27993;45.392;10.918;2023-03-01T09:04:25;36.70;;;17.65;;
42338;SDS011;27993;45.392;10.918;2023-03-01T09:06:56;33.60;;;16.77;;
42338;SDS011;27993;45.392;10.918;2023-03-01T09:09:26;33.53;;;15.47;;
42338;SDS011;27993;45.392;10.918;2023-03-01T09:11:57;33.37;;;17.43;;
42338;SDS011;27993;45.392;10.918;2023-03-01T09:14:28;28.57;;;15.90;;
42338;SDS011;27993;45.392;10.918;2023-03-01T09:16:58;35.67;;;18.57;;
42338;SDS011;27993;45.392;10.918;2023-03-01T09:19:32;26.15;;;16.70;;
42338;SDS011;27993;45.392;10.918;2023-03-01T09:22:03;28.97;;;16.17;;
42338;SDS011;27993;45.392;10.918;2023-03-01T09:24:34;26.73;;;15.98;;
42338;SDS011;27993;45.392;10.918;2023-03-01T09:27:05;33.63;;;16.47;;
42338;SDS011;27993;45.392;10.918;2023-03-01T09:29:38;27.05;;;14.68;;
42338;SDS011;27993;45.392;10.918;2023-03-01T09:32:09;28.42;;;14.48;;
42338;SDS011;27993;45.392;10.918;2023-03-01T09:34:40;29.27;;;16.30;;
42338;SDS011;27993;45.392;10.918;2023-03-01T09:37:30;35.50;;;16.60;;
42338;SDS011;27993;45.392;10.918;2023-03-01T09:40:05;34.22;;;13.65;;
42338;SDS011;27993;45.392;10.918;2023-03-01T09:42:51;23.55;;;15.45;;
42338;SDS011;27993;45.392;10.918;2023-03-01T09:45:35;28.30;;;14.30;;
42338;SDS011;27993;45.392;10.918;2023-03-01T09:48:12;28.98;;;15.10;;
42338;SDS011;27993;45.392;10.918;2023-03-01T09:50:48;32.22;;;15.88;;
42338;SDS011;27993;45.392;10.918;2023-03-01T09:53:21;25.15;;;14.30;;
42338;SDS011;27993;45.392;10.918;2023-03-01T09:56:05;26.35;;;14.60;;
42338;SDS011;27993;45.392;10.918;2023-03-01T10:01:30;30.62;;;14.73;;
42338;SDS011;27993;45.392;10.918;2023-03-01T10:09:33;27.20;;;14.20;;
42338;SDS011;27993;45.392;10.918;2023-03-01T10:12:10;33.13;;;14.25;;
42338;SDS011;27993;45.392;10.918;2023-03-01T10:15:04;28.77;;;16.00;;
42338;SDS011;27993;45.392;10.918;2023-03-01T10:20:41;24.87;;;15.45;;
42338;SDS011;27993;45.392;10.918;2023-03-01T10:23:16;28.15;;;15.32;;
42338;SDS011;27993;45.392;10.918;2023-03-01T10:25:54;27.80;;;16.43;;
42338;SDS011;27993;45.392;10.918;2023-03-01T10:31:32;27.52;;;15.98;;
42338;SDS011;27993;45.392;10.918;2023-03-01T10:34:13;27.37;;;15.10;;
42338;SDS011;27993;45.392;10.918;2023-03-01T10:36:47;32.78;;;15.45;;
42338;SDS011;27993;45.392;10.918;2023-03-01T10:39:22;32.05;;;16.17;;
42338;SDS011;27993;45.392;10.918;2023-03-01T10:41:59;32.22;;;16.55;;
42338;SDS011;27993;45.392;10.918;2023-03-01T10:47:04;27.55;;;15.02;;
42338;SDS011;27993;45.392;10.918;2023-03-01T10:49:35;24.17;;;15.90;;
42338;SDS011;27993;45.392;10.918;2023-03-01T10:52:17;30.43;;;17.77;;
42338;SDS011;27993;45.392;10.918;2023-03-01T10:54:53;29.40;;;16.20;;
42338;SDS011;27993;45.392;10.918;2023-03-01T10:57:30;35.05;;;17.98;;
42338;SDS011;27993;45.392;10.918;2023-03-01T11:02:50;31.35;;;15.82;;
42338;SDS011;27993;45.392;10.918;2023-03-01T11:05:32;33.95;;;15.38;;
42338;SDS011;27993;45.392;10.918;2023-03-01T11:08:03;30.63;;;15.57;;
42338;SDS011;27993;45.392;10.918;2023-03-01T11:10:35;32.87;;;17.53;;
42338;SDS011;27993;45.392;10.918;2023-03-01T11:13:16;43.85;;;17.52;;
42338;SDS011;27993;45.392;10.918;2023-03-01T11:16:02;30.45;;;17.92;;
42338;SDS011;27993;45.392;10.918;2023-03-01T11:18:36;29.27;;;16.12;;
42338;SDS011;27993;45.392;10.918;2023-03-01T11:21:07;29.87;;;16.07;;
42338;SDS011;27993;45.392;10.918;2023-03-01T11:23:38;28.45;;;15.80;;
42338;SDS011;27993;45.392;10.918;2023-03-01T11:26:11;29.65;;;14.98;;
42338;SDS011;27993;45.392;10.918;2023-03-01T11:28:45;24.58;;;14.85;;
42338;SDS011;27993;45.392;10.918;2023-03-01T11:31:21;25.05;;;13.80;;
42338;SDS011;27993;45.392;10.918;2023-03-01T11:34:02;25.58;;;15.32;;
42338;SDS011;27993;45.392;10.918;2023-03-01T11:36:48;32.22;;;15.73;;
42338;SDS011;27993;45.392;10.918;2023-03-01T11:39:33;38.45;;;15.63;;
42338;SDS011;27993;45.392;10.918;2023-03-01T12:27:56;20.37;;;12.48;;
42338;SDS011;27993;45.392;10.918;2023-03-01T12:35:34;16.93;;;9.30;;
42338;SDS011;27993;45.392;10.918;2023-03-01T12:38:41;17.15;;;9.70;;
42338;SDS011;27993;45.392;10.918;2023-03-01T12:47:12;16.70;;;8.55;;
42338;SDS011;27993;45.392;10.918;2023-03-01T12:50:00;17.20;;;9.23;;
42338;SDS011;27993;45.392;10.918;2023-03-01T12:52:38;16.67;;;8.05;;
42338;SDS011;27993;45.392;10.918;2023-03-01T12:55:26;18.00;;;9.60;;
42338;SDS011;27993;45.392;10.918;2023-03-01T13:03:26;12.55;;;7.37;;
42338;SDS011;27993;45.392;10.918;2023-03-01T13:09:29;15.90;;;5.90;;
42338;SDS011;27993;45.392;10.918;2023-03-01T13:17:54;10.57;;;5.82;;
42338;SDS011;27993;45.392;10.918;2023-03-01T13:39:38;19.02;;;5.30;;
42338;SDS011;27993;45.392;10.918;2023-03-01T13:42:02;21.83;;;3.80;;
42338;SDS011;27993;45.392;10.918;2023-03-01T13:44:33;9.67;;;5.10;;
42338;SDS011;27993;45.392;10.918;2023-03-01T13:49:46;3.53;;;2.20;;
42338;SDS011;27993;45.392;10.918;2023-03-01T13:55:16;6.62;;;3.28;;
42338;SDS011;27993;45.392;10.918;2023-03-01T13:57:54;12.93;;;4.40;;
42338;SDS011;27993;45.392;10.918;2023-03-01T14:00:32;10.85;;;4.05;;
42338;SDS011;27993;45.392;10.918;2023-03-01T14:08:44;7.93;;;3.92;;
42338;SDS011;27993;45.392;10.918;2023-03-01T14:19:43;6.65;;;3.60;;
42338;SDS011;27993;45.392;10.918;2023-03-01T14:24:55;8.68;;;3.37;;
42338;SDS011;27993;45.392;10.918;2023-03-01T14:27:38;9.38;;;3.62;;
42338;SDS011;27993;45.392;10.918;2023-03-01T14:30:22;11.07;;;2.37;;
42338;SDS011;27993;45.392;10.918;2023-03-01T14:32:54;5.22;;;3.33;;
42338;SDS011;27993;45.392;10.918;2023-03-01T14:35:33;5.60;;;2.75;;
42338;SDS011;27993;45.392;10.918;2023-03-01T14:38:05;11.18;;;3.67;;
42338;SDS011;27993;45.392;10.918;2023-03-01T14:40:36;13.53;;;5.10;;
42338;SDS011;27993;45.392;10.918;2023-03-01T14:43:11;7.75;;;4.75;;
42338;SDS011;27993;45.392;10.918;2023-03-01T14:45:47;11.12;;;5.72;;
42338;SDS011;27993;45.392;10.918;2023-03-01T14:48:19;5.47;;;3.15;;
42338;SDS011;27993;45.392;10.918;2023-03-01T14:50:50;10.03;;;4.17;;
42338;SDS011;27993;45.392;10.918;2023-03-01T14:53:24;3.30;;;2.37;;
42338;SDS011;27993;45.392;10.918;2023-03-01T14:56:01;4.57;;;2.58;;
42338;SDS011;27993;45.392;10.918;2023-03-01T14:58:32;9.23;;;4.43;;
42338;SDS011;27993;45.392;10.918;2023-03-01T15:01:04;12.70;;;4.93;;
42338;SDS011;27993;45.392;10.918;2023-03-01T15:03:36;2.10;;;1.62;;
42338;SDS011;27993;45.392;10.918;2023-03-01T15:06:10;5.80;;;3.30;;
42338;SDS011;27993;45.392;10.918;2023-03-01T15:08:48;11.77;;;3.45;;
42338;SDS011;27993;45.392;10.918;2023-03-01T15:11:28;6.45;;;3.17;;
42338;SDS011;27993;45.392;10.918;2023-03-01T15:14:00;8.02;;;2.95;;
42338;SDS011;27993;45.392;10.918;2023-03-01T15:16:31;53.63;;;17.03;;
42338;SDS011;27993;45.392;10.918;2023-03-01T15:19:05;11.95;;;6.60;;
42338;SDS011;27993;45.392;10.918;2023-03-01T15:21:37;11.15;;;7.15;;
42338;SDS011;27993;45.392;10.918;2023-03-01T15:26:53;9.60;;;4.35;;
42338;SDS011;27993;45.392;10.918;2023-03-01T15:29:31;8.90;;;5.47;;
42338;SDS011;27993;45.392;10.918;2023-03-01T15:38:31;7.90;;;4.43;;
42338;SDS011;27993;45.392;10.918;2023-03-01T15:41:05;12.02;;;4.55;;
42338;SDS011;27993;45.392;10.918;2023-03-01T15:43:52;15.98;;;8.05;;
42338;SDS011;27993;45.392;10.918;2023-03-01T15:46:31;13.60;;;6.62;;
42338;SDS011;27993;45.392;10.918;2023-03-01T15:49:04;14.57;;;5.30;;
42338;SDS011;27993;45.392;10.918;2023-03-01T15:51:51;12.73;;;5.85;;
42338;SDS011;27993;45.392;10.918;2023-03-01T15:54:25;9.60;;;4.97;;
42338;SDS011;27993;45.392;10.918;2023-03-01T15:56:57;10.45;;;5.40;;
42338;SDS011;27993;45.392;10.918;2023-03-01T15:59:27;12.60;;;6.67;;
42338;SDS011;27993;45.392;10.918;2023-03-01T16:01:58;10.50;;;6.47;;
42338;SDS011;27993;45.392;10.918;2023-03-01T16:04:28;9.95;;;5.37;;
42338;SDS011;27993;45.392;10.918;2023-03-01T16:06:59;10.13;;;5.70;;
42338;SDS011;27993;45.392;10.918;2023-03-01T16:09:30;10.57;;;5.25;;
42338;SDS011;27993;45.392;10.918;2023-03-01T16:12:01;9.90;;;5.25;;
42338;SDS011;27993;45.392;10.918;2023-03-01T16:14:32;15.17;;;5.93;;
42338;SDS011;27993;45.392;10.918;2023-03-01T16:17:03;8.53;;;5.53;;
42338;SDS011;27993;45.392;10.918;2023-03-01T16:19:33;9.60;;;5.13;;
42338;SDS011;27993;45.392;10.918;2023-03-01T16:22:04;14.63;;;6.67;;
42338;SDS011;27993;45.392;10.918;2023-03-01T16:24:35;8.40;;;5.32;;
42338;SDS011;27993;45.392;10.918;2023-03-01T16:27:05;10.52;;;5.93;;
42338;SDS011;27993;45.392;10.918;2023-03-01T16:29:36;16.47;;;8.60;;
42338;SDS011;27993;45.392;10.918;2023-03-01T16:32:07;15.13;;;8.43;;
42338;SDS011;27993;45.392;10.918;2023-03-01T16:34:38;12.32;;;8.45;;
42338;SDS011;27993;45.392;10.918;2023-03-01T16:37:08;10.07;;;6.63;;
42338;SDS011;27993;45.392;10.918;2023-03-01T16:39:39;10.57;;;5.90;;
42338;SDS011;27993;45.392;10.918;2023-03-01T16:42:09;10.85;;;5.32;;
42338;SDS011;27993;45.392;10.918;2023-03-01T16:44:40;11.43;;;5.33;;
42338;SDS011;27993;45.392;10.918;2023-03-01T16:47:10;8.32;;;5.32;;
42338;SDS011;27993;45.392;10.918;2023-03-01T16:49:41;10.50;;;6.10;;
42338;SDS011;27993;45.392;10.918;2023-03-01T16:52:11;9.27;;;5.50;;
42338;SDS011;27993;45.392;10.918;2023-03-01T16:54:42;14.48;;;6.37;;
42338;SDS011;27993;45.392;10.918;2023-03-01T16:57:13;18.05;;;6.10;;
42338;SDS011;27993;45.392;10.918;2023-03-01T16:59:44;10.82;;;6.10;;
42338;SDS011;27993;45.392;10.918;2023-03-01T17:02:15;16.67;;;8.57;;
42338;SDS011;27993;45.392;10.918;2023-03-01T17:04:53;15.75;;;8.15;;
42338;SDS011;27993;45.392;10.918;2023-03-01T17:07:25;13.48;;;7.22;;
42338;SDS011;27993;45.392;10.918;2023-03-01T17:09:56;9.98;;;5.68;;
42338;SDS011;27993;45.392;10.918;2023-03-01T17:12:26;9.93;;;5.87;;
42338;SDS011;27993;45.392;10.918;2023-03-01T17:14:57;10.73;;;6.43;;
42338;SDS011;27993;45.392;10.918;2023-03-01T17:17:28;13.10;;;7.43;;
42338;SDS011;27993;45.392;10.918;2023-03-01T17:19:58;17.05;;;6.40;;
42338;SDS011;27993;45.392;10.918;2023-03-01T17:22:29;19.58;;;8.30;;
42338;SDS011;27993;45.392;10.918;2023-03-01T17:25:00;12.48;;;6.80;;